createdAt,value
2019-03-15T00:02:49.453Z,16.45
2019-03-15T00:05:43.916Z,17.98
2019-03-15T00:08:38.197Z,18.67
2019-03-15T00:11:32.585Z,20.02
2019-03-15T00:14:27.015Z,19.62
2019-03-15T00:17:21.757Z,16.97
2019-03-15T00:20:16.396Z,17.60
2019-03-15T00:23:11.415Z,19.60
2019-03-15T00:26:05.627Z,18.65
2019-03-15T00:29:00.025Z,20.17
2019-03-15T00:31:54.445Z,19.05
2019-03-15T00:34:48.703Z,21.55
2019-03-15T00:37:43.677Z,21.75
2019-03-15T00:40:38.207Z,23.25
2019-03-15T00:43:32.379Z,23.70
2019-03-15T00:46:26.937Z,24.07
2019-03-15T00:49:21.600Z,25.00
2019-03-15T00:52:16.459Z,24.10
2019-03-15T00:55:11.453Z,25.27
2019-03-15T00:58:06.879Z,27.05
2019-03-15T01:01:01.259Z,26.70
2019-03-15T01:03:56.399Z,27.17
2019-03-15T01:06:51.092Z,27.20
2019-03-15T01:09:45.660Z,28.85
2019-03-15T01:12:40.067Z,27.50
2019-03-15T01:15:34.410Z,28.80
2019-03-15T01:18:29.165Z,29.20
2019-03-15T01:21:23.473Z,30.90
2019-03-15T01:24:18.286Z,31.45
2019-03-15T01:27:12.680Z,33.30
2019-03-15T01:30:07.626Z,36.98
2019-03-15T01:33:02.034Z,38.83
2019-03-15T01:35:56.772Z,39.70
2019-03-15T01:38:51.404Z,38.95
2019-03-15T01:41:45.667Z,37.00
2019-03-15T01:44:40.727Z,37.38
2019-03-15T01:47:35.152Z,35.15
2019-03-15T01:50:30.043Z,33.65
2019-03-15T01:53:26.172Z,32.83
2019-03-15T01:56:21.299Z,31.73
2019-03-15T01:59:15.945Z,31.52
2019-03-15T02:02:10.575Z,33.10
2019-03-15T02:05:05.390Z,33.58
2019-03-15T02:08:00.695Z,31.60
2019-03-15T02:10:56.416Z,33.23
2019-03-15T02:13:51.787Z,32.23
2019-03-15T02:16:46.268Z,32.25
2019-03-15T02:19:41.305Z,32.60
2019-03-15T02:22:35.883Z,31.87
2019-03-15T02:25:31.450Z,31.82
2019-03-15T02:28:25.802Z,31.57
2019-03-15T02:31:20.833Z,32.13
2019-03-15T02:34:15.860Z,32.50
2019-03-15T02:37:10.598Z,31.65
2019-03-15T02:40:05.730Z,32.73
2019-03-15T02:43:00.496Z,33.20
2019-03-15T02:45:55.288Z,34.23
2019-03-15T02:48:50.143Z,32.63
2019-03-15T02:51:45.132Z,31.37
2019-03-15T02:54:39.792Z,31.93
2019-03-15T02:57:35.447Z,32.20
2019-03-15T03:00:30.568Z,30.55
2019-03-15T03:03:25.300Z,30.88
2019-03-15T03:06:20.266Z,31.65
2019-03-15T03:09:15.025Z,31.68
2019-03-15T03:12:09.510Z,30.75
2019-03-15T03:15:04.063Z,31.15
2019-03-15T03:17:58.616Z,27.62
2019-03-15T03:20:53.528Z,28.77
2019-03-15T03:23:48.014Z,27.25
2019-03-15T03:26:44.803Z,29.52
2019-03-15T03:29:39.569Z,28.52
2019-03-15T03:32:35.265Z,28.62
2019-03-15T03:35:29.858Z,27.50
2019-03-15T03:38:24.857Z,27.67
2019-03-15T03:41:19.424Z,26.30
2019-03-15T03:44:14.233Z,26.17
2019-03-15T03:47:08.685Z,26.60
2019-03-15T03:50:03.639Z,27.25
2019-03-15T03:52:59.243Z,26.50
2019-03-15T03:55:53.590Z,27.37
2019-03-15T03:58:47.982Z,26.87
2019-03-15T04:01:43.193Z,25.35
2019-03-15T04:04:38.464Z,26.33
2019-03-15T04:07:33.176Z,27.37
2019-03-15T04:10:27.708Z,26.42
2019-03-15T04:13:22.116Z,26.35
2019-03-15T04:16:17.073Z,25.20
2019-03-15T04:19:12.171Z,24.55
2019-03-15T04:22:07.204Z,23.42
2019-03-15T04:25:02.360Z,23.18
2019-03-15T04:27:57.114Z,22.87
2019-03-15T04:30:55.628Z,23.27
2019-03-15T04:33:50.631Z,22.13
2019-03-15T04:36:45.456Z,22.73
2019-03-15T04:39:41.772Z,23.90
2019-03-15T04:42:36.733Z,25.15
2019-03-15T04:45:31.505Z,24.45
2019-03-15T04:48:26.247Z,26.95
2019-03-15T04:51:20.660Z,27.95
2019-03-15T04:54:15.192Z,27.65
2019-03-15T04:57:10.231Z,27.98
2019-03-15T05:00:04.795Z,27.07
2019-03-15T05:02:59.597Z,26.82
2019-03-15T05:06:03.275Z,26.93
2019-03-15T05:08:56.454Z,31.93
2019-03-15T05:12:24.496Z,29.10
2019-03-15T05:15:16.970Z,29.05
2019-03-15T05:18:26.041Z,30.30
2019-03-15T05:22:13.216Z,28.85
2019-03-15T05:25:47.725Z,29.48
2019-03-15T05:28:50.749Z,29.23
2019-03-15T05:31:50.521Z,30.80
2019-03-15T05:34:50.215Z,30.82
2019-03-15T05:37:48.659Z,29.45
2019-03-15T05:40:44.619Z,32.17
2019-03-15T05:43:41.905Z,30.65
2019-03-15T05:46:39.546Z,31.62
2019-03-15T05:49:36.586Z,32.95
2019-03-15T05:52:34.606Z,30.32
2019-03-15T05:55:53.053Z,36.00
2019-03-15T05:58:50.510Z,32.88
2019-03-15T06:02:27.250Z,34.40
2019-03-15T06:05:26.566Z,33.67
2019-03-15T06:08:40.518Z,34.38
2019-03-15T06:11:42.349Z,32.90
2019-03-15T06:14:39.022Z,36.08
2019-03-15T06:17:37.413Z,33.85
2019-03-15T06:20:35.991Z,33.88
2019-03-15T06:23:32.930Z,33.53
2019-03-15T06:26:28.924Z,34.53
2019-03-15T06:29:28.193Z,34.33
2019-03-15T06:32:24.556Z,34.00
2019-03-15T06:35:21.327Z,32.90
2019-03-15T06:38:33.761Z,34.13
2019-03-15T06:41:30.989Z,33.55
2019-03-15T06:44:32.832Z,33.08
2019-03-15T06:48:01.604Z,32.95
2019-03-15T06:50:56.759Z,31.82
2019-03-15T06:54:10.514Z,30.70
2019-03-15T06:56:56.509Z,32.35
2019-03-15T06:59:55.121Z,31.75
2019-03-15T07:02:58.680Z,31.65
2019-03-15T07:05:56.261Z,33.15
2019-03-15T07:08:52.954Z,31.12
2019-03-15T07:12:13.372Z,33.35
2019-03-15T07:15:09.754Z,30.20
2019-03-15T07:18:56.055Z,33.30
2019-03-15T07:21:54.888Z,31.27
2019-03-15T07:24:51.461Z,29.72
2019-03-15T07:27:49.574Z,30.15
2019-03-15T07:30:44.809Z,29.87
2019-03-15T07:33:43.226Z,31.20
2019-03-15T07:36:39.389Z,31.62
2019-03-15T07:39:38.443Z,31.12
2019-03-15T07:42:33.925Z,30.92
2019-03-15T07:45:29.582Z,29.25
2019-03-15T07:48:26.932Z,29.72
2019-03-15T07:51:22.306Z,31.50
2019-03-15T07:54:17.503Z,28.73
2019-03-15T07:57:20.881Z,30.92
2019-03-15T08:00:18.711Z,32.67
2019-03-15T08:03:21.926Z,31.25
2019-03-15T08:06:34.875Z,32.98
2019-03-15T08:09:29.672Z,31.48
2019-03-15T08:12:26.158Z,32.95
2019-03-15T08:15:22.227Z,32.65
2019-03-15T08:18:26.515Z,32.40
2019-03-15T08:21:23.809Z,32.05
2019-03-15T08:24:19.008Z,32.93
2019-03-15T08:27:16.199Z,34.38
2019-03-15T08:30:14.295Z,36.73
2019-03-15T08:33:16.060Z,34.27
2019-03-15T08:36:21.304Z,32.80
2019-03-15T08:39:20.744Z,36.05
2019-03-15T08:42:17.745Z,35.20
2019-03-15T08:45:17.903Z,36.80
2019-03-15T08:48:31.936Z,34.03
2019-03-15T08:51:47.664Z,37.17
2019-03-15T08:55:05.271Z,35.25
2019-03-15T08:58:13.827Z,35.40
2019-03-15T09:01:17.867Z,33.58
2019-03-15T09:04:21.326Z,35.98
2019-03-15T09:07:18.334Z,35.35
2019-03-15T09:10:28.936Z,31.65
2019-03-15T09:13:51.479Z,34.00
2019-03-15T09:24:29.784Z,29.23
2019-03-15T09:27:47.773Z,27.65
2019-03-15T09:38:54.003Z,28.23
2019-03-15T09:41:53.593Z,26.55
2019-03-15T09:44:51.219Z,27.37
2019-03-15T09:47:51.976Z,28.42
2019-03-15T09:50:51.728Z,25.90
2019-03-15T09:55:02.445Z,26.85
2019-03-15T10:02:15.328Z,26.23
2019-03-15T10:05:49.021Z,25.45
2019-03-15T10:13:40.853Z,25.30
2019-03-15T10:17:03.945Z,26.07
2019-03-15T10:20:32.820Z,26.57
2019-03-15T10:27:42.760Z,27.52
2019-03-15T10:30:45.348Z,28.32
2019-03-15T10:34:05.644Z,27.98
2019-03-15T10:37:06.030Z,29.65
2019-03-15T10:40:24.077Z,28.00
2019-03-15T10:43:27.774Z,28.87
2019-03-15T10:46:46.935Z,27.67
2019-03-15T10:49:42.821Z,28.15
2019-03-15T10:52:40.858Z,26.95
2019-03-15T10:55:37.443Z,26.97
2019-03-15T10:58:32.726Z,28.90
2019-03-15T11:01:30.958Z,29.30
2019-03-15T11:04:32.355Z,27.65
2019-03-15T11:07:27.620Z,28.52
2019-03-15T11:10:22.473Z,27.45
2019-03-15T11:13:23.286Z,28.40
2019-03-15T11:16:21.147Z,29.40
2019-03-15T11:19:17.678Z,28.23
2019-03-15T11:22:16.791Z,29.15
2019-03-15T11:25:13.606Z,29.20
2019-03-15T11:28:13.825Z,30.23
2019-03-15T11:31:09.959Z,30.40
2019-03-15T11:34:06.395Z,31.15
2019-03-15T11:37:03.508Z,31.73
2019-03-15T11:40:24.613Z,33.28
2019-03-15T11:43:23.574Z,32.05
2019-03-15T11:46:39.093Z,33.18
2019-03-15T11:49:31.240Z,33.05
2019-03-15T11:52:25.915Z,33.70
2019-03-15T11:55:21.094Z,33.38
2019-03-15T11:58:17.168Z,34.20
2019-03-15T12:01:13.590Z,33.20
2019-03-15T12:04:09.724Z,33.45
2019-03-15T12:07:04.693Z,32.67
2019-03-15T12:10:00.795Z,33.73
2019-03-15T12:12:55.316Z,31.95
2019-03-15T12:15:51.577Z,33.00
2019-03-15T12:18:47.166Z,32.53
2019-03-15T12:22:06.263Z,33.13
2019-03-15T12:24:59.720Z,35.45
2019-03-15T12:27:55.603Z,36.03
2019-03-15T12:31:13.622Z,35.85
2019-03-15T12:34:21.150Z,35.60
2019-03-15T12:37:25.528Z,36.25
2019-03-15T12:40:30.900Z,38.30
2019-03-15T12:43:31.510Z,36.53
2019-03-15T12:46:33.899Z,38.53
2019-03-15T12:50:04.282Z,37.65
2019-03-15T12:52:59.593Z,39.48
2019-03-15T12:55:55.782Z,37.30
2019-03-15T12:58:52.154Z,40.60
2019-03-15T13:01:47.503Z,37.88
2019-03-15T13:04:42.249Z,38.88
2019-03-15T13:07:50.745Z,39.20
2019-03-15T13:10:48.673Z,42.15
2019-03-15T13:13:45.194Z,43.85
2019-03-15T13:16:46.563Z,43.50
2019-03-15T13:19:40.109Z,46.18
2019-03-15T13:22:36.128Z,45.85
2019-03-15T13:25:31.212Z,45.83
2019-03-15T13:28:26.144Z,49.53
2019-03-15T13:31:22.019Z,50.95
2019-03-15T13:34:16.591Z,51.25
2019-03-15T13:37:14.913Z,52.43
2019-03-15T13:40:13.053Z,53.55
2019-03-15T13:43:11.773Z,54.38
2019-03-15T13:46:06.790Z,54.63
2019-03-15T13:49:02.092Z,54.40
2019-03-15T13:51:57.002Z,53.50
2019-03-15T13:54:51.647Z,55.88
2019-03-15T13:57:46.978Z,54.63
2019-03-15T14:00:41.577Z,54.85
2019-03-15T14:03:37.479Z,52.35
2019-03-15T14:06:31.846Z,53.58
2019-03-15T14:09:26.664Z,53.45
2019-03-15T14:12:21.233Z,51.42
2019-03-15T14:15:16.267Z,53.25
2019-03-15T14:18:11.010Z,52.85
2019-03-15T14:21:05.689Z,52.27
2019-03-15T14:24:00.575Z,53.10
2019-03-15T14:26:55.269Z,52.10
2019-03-15T14:29:50.002Z,52.10
2019-03-15T14:32:45.181Z,51.50
2019-03-15T14:35:39.521Z,51.73
2019-03-15T14:38:34.541Z,52.00
2019-03-15T14:41:28.912Z,52.40
2019-03-15T14:44:23.487Z,52.08
2019-03-15T14:47:18.023Z,50.95
2019-03-15T14:50:13.386Z,52.90
2019-03-15T14:53:08.212Z,52.88
2019-03-15T14:56:03.213Z,49.83
2019-03-15T14:58:57.671Z,50.95
2019-03-15T15:01:52.328Z,52.03
2019-03-15T15:04:46.978Z,49.93
2019-03-15T15:07:41.638Z,51.85
2019-03-15T15:10:37.302Z,50.88
2019-03-15T15:13:32.655Z,50.92
2019-03-15T15:16:28.975Z,49.95
2019-03-15T15:19:24.598Z,50.45
2019-03-15T15:22:19.589Z,50.25
2019-03-15T15:25:14.705Z,51.02
2019-03-15T15:28:10.301Z,49.45
2019-03-15T15:31:06.006Z,49.93
2019-03-15T15:34:01.033Z,50.78
2019-03-15T15:36:58.176Z,47.62
2019-03-15T15:39:53.716Z,48.20
2019-03-15T15:42:49.596Z,48.20
2019-03-15T15:45:45.268Z,47.33
2019-03-15T15:48:40.931Z,46.68
2019-03-15T15:51:36.438Z,47.27
2019-03-15T15:54:31.391Z,45.67
2019-03-15T15:57:26.996Z,44.48
2019-03-15T16:00:27.615Z,43.10
2019-03-15T16:03:23.167Z,45.05
2019-03-15T16:06:18.824Z,42.85
2019-03-15T16:09:14.580Z,41.80
2019-03-15T16:12:12.053Z,41.83
2019-03-15T16:15:07.459Z,40.73
2019-03-15T16:18:05.801Z,43.15
2019-03-15T16:21:05.087Z,41.98
2019-03-15T16:24:00.761Z,39.83
2019-03-15T16:26:56.434Z,40.80
2019-03-15T16:29:53.299Z,39.92
2019-03-15T16:32:51.835Z,39.95
2019-03-15T16:35:47.891Z,39.35
2019-03-15T16:38:43.394Z,39.67
2019-03-15T16:41:39.802Z,38.50
2019-03-15T16:44:35.290Z,36.48
2019-03-15T16:47:30.510Z,38.10
2019-03-15T16:50:25.906Z,37.83
2019-03-15T16:53:21.784Z,36.88
2019-03-15T16:56:20.174Z,35.13
2019-03-15T16:59:13.767Z,36.50
2019-03-15T17:02:09.181Z,36.03
2019-03-15T17:05:04.682Z,35.48
2019-03-15T17:08:00.802Z,35.20
2019-03-15T17:10:56.395Z,34.50
2019-03-15T17:13:51.802Z,34.43
2019-03-15T17:16:47.475Z,34.08
2019-03-15T17:19:42.754Z,32.20
2019-03-15T17:22:38.766Z,32.80
2019-03-15T17:25:35.109Z,31.20
2019-03-15T17:28:31.561Z,32.53
2019-03-15T17:31:27.874Z,33.92
2019-03-15T17:34:23.628Z,32.98
2019-03-15T17:37:19.754Z,31.70
2019-03-15T17:40:16.855Z,32.55
2019-03-15T17:43:13.494Z,31.00
2019-03-15T17:46:08.818Z,30.15
2019-03-15T17:49:06.302Z,31.60
2019-03-15T17:52:02.503Z,30.43
2019-03-15T17:54:58.173Z,30.70
2019-03-15T17:57:53.655Z,29.60
2019-03-15T18:00:49.960Z,30.08
2019-03-15T18:03:47.330Z,28.55
2019-03-15T18:06:44.024Z,30.08
2019-03-15T18:09:39.393Z,29.15
2019-03-15T18:12:34.445Z,27.42
2019-03-15T18:15:30.025Z,28.55
2019-03-15T18:18:25.988Z,29.27
2019-03-15T18:21:21.403Z,28.98
2019-03-15T18:24:16.881Z,27.77
2019-03-15T18:27:13.373Z,27.65
2019-03-15T18:30:08.752Z,29.02
2019-03-15T18:33:04.962Z,25.97
2019-03-15T18:35:59.594Z,26.48
2019-03-15T18:38:54.544Z,25.68
2019-03-15T18:41:50.725Z,25.23
2019-03-15T18:44:45.880Z,24.95
2019-03-15T18:47:41.255Z,23.70
2019-03-15T18:50:36.315Z,24.15
2019-03-15T18:53:32.350Z,23.42
2019-03-15T18:56:27.614Z,22.60
2019-03-15T18:59:23.867Z,21.73
2019-03-15T19:02:20.421Z,21.85
2019-03-15T19:05:15.983Z,22.25
2019-03-15T19:08:11.090Z,21.27
2019-03-15T19:11:05.956Z,20.32
2019-03-15T19:14:00.574Z,20.02
2019-03-15T19:16:55.492Z,19.62
2019-03-15T19:19:49.970Z,19.87
2019-03-15T19:22:44.745Z,19.62
2019-03-15T19:25:39.747Z,19.67
2019-03-15T19:28:34.453Z,19.00
2019-03-15T19:31:29.278Z,18.20
2019-03-15T19:34:23.581Z,18.75
2019-03-15T19:37:18.515Z,19.00
2019-03-15T19:40:14.752Z,18.15
2019-03-15T19:43:09.234Z,18.77
2019-03-15T19:46:03.687Z,18.48
2019-03-15T19:48:58.748Z,18.35
2019-03-15T19:51:54.133Z,17.67
2019-03-15T19:54:59.793Z,17.02
2019-03-15T19:57:44.443Z,18.00
2019-03-15T20:00:39.543Z,17.47
2019-03-15T20:03:43.493Z,16.82
2019-03-15T20:06:30.759Z,16.13
2019-03-15T20:09:25.544Z,16.40
2019-03-15T20:12:20.423Z,17.50
2019-03-15T20:15:17.146Z,16.10
2019-03-15T20:18:11.550Z,16.50
2019-03-15T20:21:06.352Z,15.95
2019-03-15T20:24:01.224Z,15.17
2019-03-15T20:26:56.021Z,14.87
2019-03-15T20:29:53.495Z,15.57
2019-03-15T20:32:47.948Z,15.23
2019-03-15T20:35:42.502Z,15.20
2019-03-15T20:38:37.532Z,15.70
2019-03-15T20:41:32.322Z,15.13
2019-03-15T20:44:29.083Z,15.20
2019-03-15T20:47:24.440Z,15.33
2019-03-15T20:50:19.172Z,15.35
2019-03-15T20:53:13.848Z,15.00
2019-03-15T20:56:08.349Z,15.37
2019-03-15T20:59:02.864Z,13.87
2019-03-15T21:01:57.531Z,14.83
2019-03-15T21:04:53.368Z,13.93
2019-03-15T21:07:48.117Z,14.05
2019-03-15T21:10:42.799Z,15.73
2019-03-15T21:13:37.206Z,14.23
2019-03-15T21:16:32.031Z,14.83
2019-03-15T21:19:27.404Z,15.10
2019-03-15T21:22:22.110Z,15.07
2019-03-15T21:25:16.705Z,14.40
2019-03-15T21:28:11.317Z,14.57
2019-03-15T21:31:07.162Z,14.80
2019-03-15T21:34:03.804Z,15.50
2019-03-15T21:37:00.086Z,14.10
2019-03-15T21:39:54.509Z,14.35
2019-03-15T21:42:49.281Z,13.97
2019-03-15T21:45:43.598Z,14.10
2019-03-15T21:48:38.262Z,14.60
2019-03-15T21:51:33.311Z,14.60
2019-03-15T21:54:28.073Z,13.03
2019-03-15T21:57:22.442Z,13.47
2019-03-15T22:00:17.402Z,13.83
2019-03-15T22:03:11.776Z,13.37
2019-03-15T22:06:06.351Z,13.43
2019-03-15T22:09:00.821Z,13.03
2019-03-15T22:11:55.917Z,13.03
2019-03-15T22:14:50.635Z,13.90
2019-03-15T22:17:45.408Z,13.13
2019-03-15T22:20:40.331Z,13.43
2019-03-15T22:23:35.334Z,13.40
2019-03-15T22:26:30.185Z,13.57
2019-03-15T22:29:24.758Z,12.97
2019-03-15T22:32:19.183Z,12.73
2019-03-15T22:35:13.943Z,12.80
2019-03-15T22:38:08.678Z,12.23
2019-03-15T22:41:03.223Z,12.73
2019-03-15T22:43:57.800Z,12.23
2019-03-15T22:46:52.346Z,11.90
2019-03-15T22:49:46.691Z,12.00
2019-03-15T22:52:41.121Z,12.40
2019-03-15T22:55:35.333Z,12.93
2019-03-15T22:58:31.066Z,12.77
2019-03-15T23:01:30.406Z,12.40
2019-03-15T23:04:21.302Z,13.10
2019-03-15T23:07:15.827Z,12.13
2019-03-15T23:10:11.002Z,12.30
2019-03-15T23:13:05.528Z,12.20
2019-03-15T23:15:59.929Z,12.20
2019-03-15T23:18:54.625Z,12.07
2019-03-15T23:21:49.652Z,12.10
2019-03-15T23:24:45.198Z,11.77
2019-03-15T23:27:41.522Z,12.43
2019-03-15T23:30:35.894Z,12.40
2019-03-15T23:33:30.473Z,12.37
2019-03-15T23:36:25.114Z,12.30
2019-03-15T23:39:19.615Z,13.27
2019-03-15T23:42:14.281Z,13.87
2019-03-15T23:45:09.141Z,13.50
2019-03-15T23:48:03.803Z,13.20
2019-03-15T23:50:58.057Z,13.40
2019-03-15T23:53:52.643Z,13.07
2019-03-15T23:56:47.147Z,13.67
2019-03-15T23:59:42.334Z,13.30
